sensor_id;sensor_type;location;lat;lon;timestamp;P1;durP1;ratioP1;P2;durP2;ratioP2
5831;SDS011;50943;51.448;7.646;2024-02-21T00:02:04;38.60;;;11.67;;
5831;SDS011;50943;51.448;7.646;2024-02-21T00:04:31;29.63;;;10.50;;
5831;SDS011;50943;51.448;7.646;2024-02-21T00:06:58;22.80;;;10.33;;
5831;SDS011;50943;51.448;7.646;2024-02-21T00:09:25;30.50;;;10.00;;
5831;SDS011;50943;51.448;7.646;2024-02-21T00:11:53;30.50;;;10.93;;
5831;SDS011;50943;51.448;7.646;2024-02-21T00:14:19;26.93;;;11.43;;
5831;SDS011;50943;51.448;7.646;2024-02-21T00:16:46;35.37;;;10.53;;
5831;SDS011;50943;51.448;7.646;2024-02-21T00:19:12;29.63;;;11.00;;
5831;SDS011;50943;51.448;7.646;2024-02-21T00:21:39;33.53;;;11.40;;
5831;SDS011;50943;51.448;7.646;2024-02-21T00:24:06;24.00;;;9.90;;
5831;SDS011;50943;51.448;7.646;2024-02-21T00:26:33;24.90;;;10.77;;
5831;SDS011;50943;51.448;7.646;2024-02-21T00:29:01;26.53;;;10.27;;
5831;SDS011;50943;51.448;7.646;2024-02-21T00:31:27;26.60;;;9.97;;
5831;SDS011;50943;51.448;7.646;2024-02-21T00:33:54;27.33;;;10.17;;
5831;SDS011;50943;51.448;7.646;2024-02-21T00:36:20;21.10;;;9.27;;
5831;SDS011;50943;51.448;7.646;2024-02-21T00:38:47;30.63;;;10.10;;
5831;SDS011;50943;51.448;7.646;2024-02-21T00:41:13;26.00;;;10.60;;
5831;SDS011;50943;51.448;7.646;2024-02-21T00:43:40;23.43;;;9.60;;
5831;SDS011;50943;51.448;7.646;2024-02-21T00:46:08;25.83;;;10.30;;
5831;SDS011;50943;51.448;7.646;2024-02-21T00:48:35;25.83;;;9.80;;
5831;SDS011;50943;51.448;7.646;2024-02-21T00:51:01;29.10;;;9.53;;
5831;SDS011;50943;51.448;7.646;2024-02-21T00:53:28;24.17;;;11.40;;
5831;SDS011;50943;51.448;7.646;2024-02-21T00:55:55;21.13;;;8.77;;
5831;SDS011;50943;51.448;7.646;2024-02-21T00:58:22;20.57;;;9.93;;
5831;SDS011;50943;51.448;7.646;2024-02-21T01:00:48;34.80;;;10.23;;
5831;SDS011;50943;51.448;7.646;2024-02-21T01:03:16;25.13;;;10.43;;
5831;SDS011;50943;51.448;7.646;2024-02-21T01:05:43;17.43;;;9.17;;
5831;SDS011;50943;51.448;7.646;2024-02-21T01:08:09;26.47;;;10.00;;
5831;SDS011;50943;51.448;7.646;2024-02-21T01:10:36;29.13;;;10.40;;
5831;SDS011;50943;51.448;7.646;2024-02-21T01:13:03;22.43;;;9.60;;
5831;SDS011;50943;51.448;7.646;2024-02-21T01:15:29;29.33;;;9.40;;
5831;SDS011;50943;51.448;7.646;2024-02-21T01:17:56;25.37;;;9.87;;
5831;SDS011;50943;51.448;7.646;2024-02-21T01:20:24;31.47;;;10.80;;
5831;SDS011;50943;51.448;7.646;2024-02-21T01:22:51;19.40;;;8.77;;
5831;SDS011;50943;51.448;7.646;2024-02-21T01:25:17;21.63;;;9.20;;
5831;SDS011;50943;51.448;7.646;2024-02-21T01:27:44;23.33;;;8.97;;
5831;SDS011;50943;51.448;7.646;2024-02-21T01:30:10;25.17;;;10.40;;
5831;SDS011;50943;51.448;7.646;2024-02-21T01:32:38;29.37;;;10.67;;
5831;SDS011;50943;51.448;7.646;2024-02-21T01:35:04;22.67;;;9.40;;
5831;SDS011;50943;51.448;7.646;2024-02-21T01:37:33;28.93;;;10.30;;
5831;SDS011;50943;51.448;7.646;2024-02-21T01:40:00;25.20;;;9.27;;
5831;SDS011;50943;51.448;7.646;2024-02-21T01:42:27;27.67;;;10.27;;
5831;SDS011;50943;51.448;7.646;2024-02-21T01:44:54;20.37;;;9.53;;
5831;SDS011;50943;51.448;7.646;2024-02-21T01:47:20;25.43;;;9.63;;
5831;SDS011;50943;51.448;7.646;2024-02-21T01:49:47;26.83;;;10.00;;
5831;SDS011;50943;51.448;7.646;2024-02-21T01:52:14;24.20;;;8.80;;
5831;SDS011;50943;51.448;7.646;2024-02-21T01:54:43;22.10;;;8.87;;
5831;SDS011;50943;51.448;7.646;2024-02-21T01:57:10;28.50;;;10.23;;
5831;SDS011;50943;51.448;7.646;2024-02-21T01:59:36;24.23;;;9.87;;
5831;SDS011;50943;51.448;7.646;2024-02-21T02:02:02;28.10;;;8.40;;
5831;SDS011;50943;51.448;7.646;2024-02-21T02:04:29;22.13;;;8.50;;
5831;SDS011;50943;51.448;7.646;2024-02-21T02:06:55;21.33;;;9.30;;
5831;SDS011;50943;51.448;7.646;2024-02-21T02:09:24;16.27;;;8.10;;
5831;SDS011;50943;51.448;7.646;2024-02-21T02:11:52;25.67;;;9.77;;
5831;SDS011;50943;51.448;7.646;2024-02-21T02:14:19;25.33;;;9.87;;
5831;SDS011;50943;51.448;7.646;2024-02-21T02:16:46;21.87;;;8.77;;
5831;SDS011;50943;51.448;7.646;2024-02-21T02:19:12;22.80;;;9.37;;
5831;SDS011;50943;51.448;7.646;2024-02-21T02:21:42;18.77;;;8.90;;
5831;SDS011;50943;51.448;7.646;2024-02-21T02:24:12;24.03;;;8.40;;
5831;SDS011;50943;51.448;7.646;2024-02-21T02:26:40;22.90;;;8.13;;
5831;SDS011;50943;51.448;7.646;2024-02-21T02:29:06;29.93;;;8.87;;
5831;SDS011;50943;51.448;7.646;2024-02-21T02:31:33;25.67;;;7.30;;
5831;SDS011;50943;51.448;7.646;2024-02-21T02:34:00;23.20;;;7.70;;
5831;SDS011;50943;51.448;7.646;2024-02-21T02:36:26;26.43;;;8.70;;
5831;SDS011;50943;51.448;7.646;2024-02-21T02:38:53;25.40;;;8.40;;
5831;SDS011;50943;51.448;7.646;2024-02-21T02:41:21;17.93;;;7.90;;
5831;SDS011;50943;51.448;7.646;2024-02-21T02:43:47;23.63;;;7.60;;
5831;SDS011;50943;51.448;7.646;2024-02-21T02:46:14;19.33;;;7.30;;
5831;SDS011;50943;51.448;7.646;2024-02-21T02:48:40;15.90;;;7.27;;
5831;SDS011;50943;51.448;7.646;2024-02-21T02:51:07;19.77;;;8.30;;
5831;SDS011;50943;51.448;7.646;2024-02-21T02:53:34;15.83;;;7.90;;
5831;SDS011;50943;51.448;7.646;2024-02-21T02:56:00;18.87;;;8.30;;
5831;SDS011;50943;51.448;7.646;2024-02-21T02:58:28;27.70;;;8.80;;
5831;SDS011;50943;51.448;7.646;2024-02-21T03:00:55;21.73;;;7.60;;
5831;SDS011;50943;51.448;7.646;2024-02-21T03:03:21;16.17;;;8.70;;
5831;SDS011;50943;51.448;7.646;2024-02-21T03:05:48;19.67;;;7.47;;
5831;SDS011;50943;51.448;7.646;2024-02-21T03:08:14;21.70;;;8.97;;
5831;SDS011;50943;51.448;7.646;2024-02-21T03:10:41;26.67;;;8.53;;
5831;SDS011;50943;51.448;7.646;2024-02-21T03:13:07;20.30;;;8.00;;
5831;SDS011;50943;51.448;7.646;2024-02-21T03:15:35;18.17;;;7.40;;
5831;SDS011;50943;51.448;7.646;2024-02-21T03:18:02;21.73;;;7.67;;
5831;SDS011;50943;51.448;7.646;2024-02-21T03:20:29;22.87;;;8.53;;
5831;SDS011;50943;51.448;7.646;2024-02-21T03:22:55;24.77;;;6.97;;
5831;SDS011;50943;51.448;7.646;2024-02-21T03:25:22;20.03;;;8.03;;
5831;SDS011;50943;51.448;7.646;2024-02-21T03:27:48;19.67;;;8.50;;
5831;SDS011;50943;51.448;7.646;2024-02-21T03:30:15;20.40;;;7.57;;
5831;SDS011;50943;51.448;7.646;2024-02-21T03:32:43;22.43;;;7.60;;
5831;SDS011;50943;51.448;7.646;2024-02-21T03:35:10;20.00;;;8.60;;
5831;SDS011;50943;51.448;7.646;2024-02-21T03:37:36;19.90;;;7.87;;
5831;SDS011;50943;51.448;7.646;2024-02-21T03:40:06;22.97;;;9.37;;
5831;SDS011;50943;51.448;7.646;2024-02-21T03:42:33;21.57;;;8.10;;
5831;SDS011;50943;51.448;7.646;2024-02-21T03:45:00;27.03;;;8.80;;
5831;SDS011;50943;51.448;7.646;2024-02-21T03:47:26;18.27;;;8.80;;
5831;SDS011;50943;51.448;7.646;2024-02-21T03:49:54;23.97;;;9.60;;
5831;SDS011;50943;51.448;7.646;2024-02-21T03:52:21;20.20;;;8.07;;
5831;SDS011;50943;51.448;7.646;2024-02-21T03:54:48;24.93;;;8.50;;
5831;SDS011;50943;51.448;7.646;2024-02-21T03:57:14;18.50;;;8.60;;
5831;SDS011;50943;51.448;7.646;2024-02-21T03:59:42;18.10;;;7.73;;
5831;SDS011;50943;51.448;7.646;2024-02-21T04:02:09;25.47;;;8.20;;
5831;SDS011;50943;51.448;7.646;2024-02-21T04:04:35;21.97;;;8.73;;
5831;SDS011;50943;51.448;7.646;2024-02-21T04:07:04;25.93;;;8.60;;
5831;SDS011;50943;51.448;7.646;2024-02-21T04:09:32;21.83;;;7.00;;
5831;SDS011;50943;51.448;7.646;2024-02-21T04:11:59;18.23;;;7.70;;
5831;SDS011;50943;51.448;7.646;2024-02-21T04:14:26;22.63;;;7.57;;
5831;SDS011;50943;51.448;7.646;2024-02-21T04:16:53;20.50;;;7.13;;
5831;SDS011;50943;51.448;7.646;2024-02-21T04:19:19;21.40;;;8.07;;
5831;SDS011;50943;51.448;7.646;2024-02-21T04:21:46;19.07;;;7.50;;
5831;SDS011;50943;51.448;7.646;2024-02-21T04:24:14;22.90;;;7.87;;
5831;SDS011;50943;51.448;7.646;2024-02-21T04:26:40;20.00;;;8.00;;
5831;SDS011;50943;51.448;7.646;2024-02-21T04:29:07;23.20;;;7.20;;
5831;SDS011;50943;51.448;7.646;2024-02-21T04:31:33;20.20;;;7.50;;
5831;SDS011;50943;51.448;7.646;2024-02-21T04:34:00;21.13;;;8.17;;
5831;SDS011;50943;51.448;7.646;2024-02-21T04:36:27;18.67;;;7.30;;
5831;SDS011;50943;51.448;7.646;2024-02-21T04:38:54;21.47;;;7.17;;
5831;SDS011;50943;51.448;7.646;2024-02-21T04:41:22;21.40;;;8.50;;
5831;SDS011;50943;51.448;7.646;2024-02-21T04:43:48;17.73;;;7.60;;
5831;SDS011;50943;51.448;7.646;2024-02-21T04:46:15;22.57;;;7.40;;
5831;SDS011;50943;51.448;7.646;2024-02-21T04:48:41;21.40;;;7.90;;
5831;SDS011;50943;51.448;7.646;2024-02-21T04:51:08;27.00;;;7.90;;
5831;SDS011;50943;51.448;7.646;2024-02-21T04:53:34;14.37;;;6.43;;
5831;SDS011;50943;51.448;7.646;2024-02-21T04:56:01;16.97;;;7.23;;
5831;SDS011;50943;51.448;7.646;2024-02-21T04:58:29;25.17;;;9.37;;
5831;SDS011;50943;51.448;7.646;2024-02-21T05:00:55;24.80;;;8.10;;
5831;SDS011;50943;51.448;7.646;2024-02-21T05:03:23;19.80;;;6.80;;
5831;SDS011;50943;51.448;7.646;2024-02-21T05:05:49;15.90;;;7.53;;
5831;SDS011;50943;51.448;7.646;2024-02-21T05:08:16;28.73;;;7.57;;
5831;SDS011;50943;51.448;7.646;2024-02-21T05:10:42;16.07;;;6.77;;
5831;SDS011;50943;51.448;7.646;2024-02-21T05:13:09;15.20;;;6.50;;
5831;SDS011;50943;51.448;7.646;2024-02-21T05:15:37;30.17;;;8.10;;
5831;SDS011;50943;51.448;7.646;2024-02-21T05:18:03;18.17;;;7.63;;
5831;SDS011;50943;51.448;7.646;2024-02-21T05:20:30;22.37;;;6.43;;
5831;SDS011;50943;51.448;7.646;2024-02-21T05:22:57;19.37;;;7.80;;
5831;SDS011;50943;51.448;7.646;2024-02-21T05:25:23;23.27;;;6.90;;
5831;SDS011;50943;51.448;7.646;2024-02-21T05:27:50;21.70;;;6.60;;
5831;SDS011;50943;51.448;7.646;2024-02-21T05:30:18;22.20;;;7.97;;
5831;SDS011;50943;51.448;7.646;2024-02-21T05:32:46;15.53;;;6.57;;
5831;SDS011;50943;51.448;7.646;2024-02-21T05:35:13;20.00;;;7.10;;
5831;SDS011;50943;51.448;7.646;2024-02-21T05:37:39;16.97;;;6.13;;
5831;SDS011;50943;51.448;7.646;2024-02-21T05:40:06;14.57;;;6.57;;
5831;SDS011;50943;51.448;7.646;2024-02-21T05:42:34;17.33;;;6.53;;
5831;SDS011;50943;51.448;7.646;2024-02-21T05:45:00;16.43;;;5.53;;
5831;SDS011;50943;51.448;7.646;2024-02-21T05:47:28;17.27;;;6.17;;
5831;SDS011;50943;51.448;7.646;2024-02-21T05:49:56;16.33;;;6.70;;
5831;SDS011;50943;51.448;7.646;2024-02-21T05:52:22;12.57;;;6.27;;
5831;SDS011;50943;51.448;7.646;2024-02-21T05:54:49;12.20;;;6.67;;
5831;SDS011;50943;51.448;7.646;2024-02-21T05:57:17;15.20;;;7.13;;
5831;SDS011;50943;51.448;7.646;2024-02-21T05:59:44;15.10;;;6.57;;
5831;SDS011;50943;51.448;7.646;2024-02-21T06:02:10;19.90;;;7.20;;
5831;SDS011;50943;51.448;7.646;2024-02-21T06:04:37;21.23;;;6.87;;
5831;SDS011;50943;51.448;7.646;2024-02-21T06:07:06;16.60;;;6.00;;
5831;SDS011;50943;51.448;7.646;2024-02-21T06:09:32;18.97;;;6.20;;
5831;SDS011;50943;51.448;7.646;2024-02-21T06:11:59;14.40;;;5.90;;
5831;SDS011;50943;51.448;7.646;2024-02-21T06:14:25;15.87;;;6.70;;
5831;SDS011;50943;51.448;7.646;2024-02-21T06:16:52;12.87;;;6.50;;
5831;SDS011;50943;51.448;7.646;2024-02-21T06:19:18;13.37;;;5.83;;
5831;SDS011;50943;51.448;7.646;2024-02-21T06:21:45;21.63;;;7.27;;
5831;SDS011;50943;51.448;7.646;2024-02-21T06:24:13;14.50;;;6.17;;
5831;SDS011;50943;51.448;7.646;2024-02-21T06:26:40;10.90;;;5.73;;
5831;SDS011;50943;51.448;7.646;2024-02-21T06:29:06;14.50;;;5.17;;
5831;SDS011;50943;51.448;7.646;2024-02-21T06:31:33;16.50;;;5.83;;
5831;SDS011;50943;51.448;7.646;2024-02-21T06:34:01;15.97;;;5.67;;
5831;SDS011;50943;51.448;7.646;2024-02-21T06:36:27;20.70;;;5.93;;
5831;SDS011;50943;51.448;7.646;2024-02-21T06:38:54;13.00;;;6.00;;
5831;SDS011;50943;51.448;7.646;2024-02-21T06:41:22;17.90;;;6.87;;
5831;SDS011;50943;51.448;7.646;2024-02-21T06:43:48;10.70;;;5.20;;
5831;SDS011;50943;51.448;7.646;2024-02-21T06:46:22;14.80;;;5.43;;
5831;SDS011;50943;51.448;7.646;2024-02-21T06:48:49;10.90;;;5.17;;
5831;SDS011;50943;51.448;7.646;2024-02-21T06:51:16;13.90;;;5.60;;
5831;SDS011;50943;51.448;7.646;2024-02-21T06:53:42;12.40;;;5.30;;
5831;SDS011;50943;51.448;7.646;2024-02-21T06:56:09;15.23;;;5.67;;
5831;SDS011;50943;51.448;7.646;2024-02-21T06:58:37;16.17;;;5.40;;
5831;SDS011;50943;51.448;7.646;2024-02-21T07:01:03;10.87;;;4.90;;
5831;SDS011;50943;51.448;7.646;2024-02-21T07:03:30;12.00;;;5.37;;
5831;SDS011;50943;51.448;7.646;2024-02-21T07:05:56;12.80;;;5.50;;
5831;SDS011;50943;51.448;7.646;2024-02-21T07:08:23;16.13;;;4.97;;
5831;SDS011;50943;51.448;7.646;2024-02-21T07:10:50;14.93;;;5.97;;
5831;SDS011;50943;51.448;7.646;2024-02-21T07:13:16;18.57;;;5.60;;
5831;SDS011;50943;51.448;7.646;2024-02-21T07:15:44;14.20;;;5.20;;
5831;SDS011;50943;51.448;7.646;2024-02-21T07:18:11;12.70;;;4.40;;
5831;SDS011;50943;51.448;7.646;2024-02-21T07:20:37;17.03;;;5.77;;
5831;SDS011;50943;51.448;7.646;2024-02-21T07:23:06;8.77;;;5.00;;
5831;SDS011;50943;51.448;7.646;2024-02-21T07:25:32;10.87;;;5.47;;
5831;SDS011;50943;51.448;7.646;2024-02-21T07:27:59;13.80;;;4.90;;
5831;SDS011;50943;51.448;7.646;2024-02-21T07:30:26;15.70;;;5.73;;
5831;SDS011;50943;51.448;7.646;2024-02-21T07:32:54;11.63;;;4.80;;
5831;SDS011;50943;51.448;7.646;2024-02-21T07:35:21;14.20;;;5.50;;
5831;SDS011;50943;51.448;7.646;2024-02-21T07:37:47;15.20;;;5.47;;
5831;SDS011;50943;51.448;7.646;2024-02-21T07:40:14;14.77;;;5.90;;
5831;SDS011;50943;51.448;7.646;2024-02-21T07:42:41;14.73;;;4.93;;
5831;SDS011;50943;51.448;7.646;2024-02-21T07:45:08;11.67;;;5.20;;
5831;SDS011;50943;51.448;7.646;2024-02-21T07:47:35;12.87;;;6.03;;
5831;SDS011;50943;51.448;7.646;2024-02-21T07:50:04;14.77;;;5.70;;
5831;SDS011;50943;51.448;7.646;2024-02-21T07:52:31;17.13;;;6.87;;
5831;SDS011;50943;51.448;7.646;2024-02-21T07:54:57;14.57;;;5.97;;
5831;SDS011;50943;51.448;7.646;2024-02-21T07:57:24;17.00;;;6.37;;
5831;SDS011;50943;51.448;7.646;2024-02-21T07:59:50;16.13;;;5.70;;
5831;SDS011;50943;51.448;7.646;2024-02-21T08:02:17;16.60;;;6.40;;
5831;SDS011;50943;51.448;7.646;2024-02-21T08:04:44;23.00;;;5.93;;
5831;SDS011;50943;51.448;7.646;2024-02-21T08:07:11;15.37;;;6.07;;
5831;SDS011;50943;51.448;7.646;2024-02-21T08:09:39;13.60;;;5.40;;
5831;SDS011;50943;51.448;7.646;2024-02-21T08:12:06;18.07;;;6.30;;
5831;SDS011;50943;51.448;7.646;2024-02-21T08:14:33;14.17;;;6.53;;
5831;SDS011;50943;51.448;7.646;2024-02-21T08:16:59;14.53;;;5.90;;
5831;SDS011;50943;51.448;7.646;2024-02-21T08:19:26;15.60;;;6.40;;
5831;SDS011;50943;51.448;7.646;2024-02-21T08:21:53;14.80;;;6.30;;
5831;SDS011;50943;51.448;7.646;2024-02-21T08:24:21;21.23;;;6.77;;
5831;SDS011;50943;51.448;7.646;2024-02-21T08:26:48;15.27;;;7.23;;
5831;SDS011;50943;51.448;7.646;2024-02-21T08:29:14;13.80;;;5.77;;
5831;SDS011;50943;51.448;7.646;2024-02-21T08:31:41;13.00;;;5.80;;
5831;SDS011;50943;51.448;7.646;2024-02-21T08:34:07;18.37;;;6.10;;
5831;SDS011;50943;51.448;7.646;2024-02-21T08:36:34;12.03;;;5.30;;
5831;SDS011;50943;51.448;7.646;2024-02-21T08:39:02;15.50;;;6.70;;
5831;SDS011;50943;51.448;7.646;2024-02-21T08:41:31;9.17;;;5.60;;
5831;SDS011;50943;51.448;7.646;2024-02-21T08:43:58;17.97;;;5.83;;
5831;SDS011;50943;51.448;7.646;2024-02-21T08:46:25;15.30;;;5.73;;
5831;SDS011;50943;51.448;7.646;2024-02-21T08:48:52;13.50;;;5.87;;
5831;SDS011;50943;51.448;7.646;2024-02-21T08:51:19;11.60;;;5.50;;
5831;SDS011;50943;51.448;7.646;2024-02-21T08:53:46;11.63;;;4.60;;
5831;SDS011;50943;51.448;7.646;2024-02-21T08:56:13;19.33;;;6.30;;
5831;SDS011;50943;51.448;7.646;2024-02-21T08:58:41;19.80;;;5.70;;
5831;SDS011;50943;51.448;7.646;2024-02-21T09:01:08;14.63;;;5.33;;
5831;SDS011;50943;51.448;7.646;2024-02-21T09:03:35;11.97;;;5.57;;
5831;SDS011;50943;51.448;7.646;2024-02-21T09:06:02;11.97;;;5.57;;
5831;SDS011;50943;51.448;7.646;2024-02-21T09:08:30;17.40;;;6.83;;
5831;SDS011;50943;51.448;7.646;2024-02-21T09:10:56;15.30;;;6.73;;
5831;SDS011;50943;51.448;7.646;2024-02-21T09:13:23;15.30;;;7.37;;
5831;SDS011;50943;51.448;7.646;2024-02-21T09:15:51;17.57;;;7.10;;
5831;SDS011;50943;51.448;7.646;2024-02-21T09:18:17;15.73;;;6.47;;
5831;SDS011;50943;51.448;7.646;2024-02-21T09:20:44;14.23;;;6.67;;
5831;SDS011;50943;51.448;7.646;2024-02-21T09:23:11;14.13;;;6.30;;
5831;SDS011;50943;51.448;7.646;2024-02-21T09:25:38;12.97;;;6.77;;
5831;SDS011;50943;51.448;7.646;2024-02-21T09:28:05;16.93;;;5.80;;
5831;SDS011;50943;51.448;7.646;2024-02-21T09:30:32;12.40;;;5.60;;
5831;SDS011;50943;51.448;7.646;2024-02-21T09:33:00;20.20;;;4.70;;
5831;SDS011;50943;51.448;7.646;2024-02-21T09:35:27;13.43;;;5.30;;
5831;SDS011;50943;51.448;7.646;2024-02-21T09:37:53;11.73;;;4.47;;
5831;SDS011;50943;51.448;7.646;2024-02-21T09:40:20;11.97;;;4.40;;
5831;SDS011;50943;51.448;7.646;2024-02-21T09:42:47;16.17;;;4.47;;
5831;SDS011;50943;51.448;7.646;2024-02-21T09:45:15;13.00;;;3.93;;
5831;SDS011;50943;51.448;7.646;2024-02-21T09:47:50;9.47;;;3.67;;
5831;SDS011;50943;51.448;7.646;2024-02-21T09:50:26;11.10;;;3.87;;
5831;SDS011;50943;51.448;7.646;2024-02-21T09:52:53;11.00;;;4.07;;
5831;SDS011;50943;51.448;7.646;2024-02-21T09:55:21;14.93;;;3.83;;
5831;SDS011;50943;51.448;7.646;2024-02-21T09:57:48;9.83;;;4.10;;
5831;SDS011;50943;51.448;7.646;2024-02-21T10:00:16;10.80;;;4.50;;
5831;SDS011;50943;51.448;7.646;2024-02-21T10:02:46;7.67;;;3.70;;
5831;SDS011;50943;51.448;7.646;2024-02-21T10:05:13;10.80;;;4.40;;
5831;SDS011;50943;51.448;7.646;2024-02-21T10:07:41;12.80;;;3.80;;
5831;SDS011;50943;51.448;7.646;2024-02-21T10:10:08;16.57;;;5.00;;
5831;SDS011;50943;51.448;7.646;2024-02-21T10:12:35;20.40;;;5.27;;
5831;SDS011;50943;51.448;7.646;2024-02-21T10:15:01;11.60;;;5.00;;
5831;SDS011;50943;51.448;7.646;2024-02-21T10:17:28;18.83;;;5.33;;
5831;SDS011;50943;51.448;7.646;2024-02-21T10:19:55;12.07;;;4.60;;
5831;SDS011;50943;51.448;7.646;2024-02-21T10:22:21;13.03;;;4.40;;
5831;SDS011;50943;51.448;7.646;2024-02-21T10:24:50;18.70;;;4.87;;
5831;SDS011;50943;51.448;7.646;2024-02-21T10:27:16;19.10;;;5.20;;
5831;SDS011;50943;51.448;7.646;2024-02-21T10:29:43;10.93;;;4.47;;
5831;SDS011;50943;51.448;7.646;2024-02-21T10:32:15;13.50;;;4.80;;
5831;SDS011;50943;51.448;7.646;2024-02-21T10:34:42;9.20;;;4.40;;
5831;SDS011;50943;51.448;7.646;2024-02-21T10:37:09;19.30;;;4.80;;
5831;SDS011;50943;51.448;7.646;2024-02-21T10:39:36;19.67;;;4.70;;
5831;SDS011;50943;51.448;7.646;2024-02-21T10:42:05;13.93;;;4.67;;
5831;SDS011;50943;51.448;7.646;2024-02-21T10:44:33;16.83;;;4.77;;
5831;SDS011;50943;51.448;7.646;2024-02-21T10:47:00;11.10;;;4.53;;
5831;SDS011;50943;51.448;7.646;2024-02-21T10:49:31;17.27;;;4.57;;
5831;SDS011;50943;51.448;7.646;2024-02-21T10:52:00;15.03;;;4.13;;
5831;SDS011;50943;51.448;7.646;2024-02-21T10:54:39;17.20;;;4.60;;
5831;SDS011;50943;51.448;7.646;2024-02-21T10:57:13;12.40;;;3.87;;
5831;SDS011;50943;51.448;7.646;2024-02-21T10:59:40;12.13;;;3.87;;
5831;SDS011;50943;51.448;7.646;2024-02-21T11:02:07;14.10;;;3.57;;
5831;SDS011;50943;51.448;7.646;2024-02-21T11:04:33;9.93;;;4.10;;
5831;SDS011;50943;51.448;7.646;2024-02-21T11:07:02;18.33;;;4.30;;
5831;SDS011;50943;51.448;7.646;2024-02-21T11:09:30;14.23;;;3.80;;
5831;SDS011;50943;51.448;7.646;2024-02-21T11:11:57;10.70;;;3.93;;
5831;SDS011;50943;51.448;7.646;2024-02-21T11:14:26;17.80;;;4.50;;
5831;SDS011;50943;51.448;7.646;2024-02-21T11:16:53;12.50;;;4.33;;
5831;SDS011;50943;51.448;7.646;2024-02-21T11:19:21;17.63;;;4.30;;
5831;SDS011;50943;51.448;7.646;2024-02-21T11:21:49;8.60;;;3.90;;
5831;SDS011;50943;51.448;7.646;2024-02-21T11:24:25;13.30;;;4.60;;
5831;SDS011;50943;51.448;7.646;2024-02-21T11:26:51;10.10;;;3.50;;
5831;SDS011;50943;51.448;7.646;2024-02-21T11:29:22;16.53;;;4.43;;
5831;SDS011;50943;51.448;7.646;2024-02-21T11:31:51;8.10;;;3.43;;
5831;SDS011;50943;51.448;7.646;2024-02-21T11:34:18;16.13;;;3.93;;
5831;SDS011;50943;51.448;7.646;2024-02-21T11:36:48;11.70;;;3.90;;
5831;SDS011;50943;51.448;7.646;2024-02-21T11:39:18;15.30;;;3.77;;
5831;SDS011;50943;51.448;7.646;2024-02-21T11:41:46;10.87;;;4.30;;
5831;SDS011;50943;51.448;7.646;2024-02-21T11:44:13;12.40;;;3.53;;
5831;SDS011;50943;51.448;7.646;2024-02-21T11:46:39;11.07;;;3.80;;
5831;SDS011;50943;51.448;7.646;2024-02-21T11:49:07;9.60;;;3.20;;
5831;SDS011;50943;51.448;7.646;2024-02-21T11:51:34;11.30;;;3.63;;
5831;SDS011;50943;51.448;7.646;2024-02-21T11:54:00;10.10;;;3.50;;
5831;SDS011;50943;51.448;7.646;2024-02-21T11:56:27;14.87;;;3.60;;
5831;SDS011;50943;51.448;7.646;2024-02-21T11:58:54;14.73;;;3.43;;
5831;SDS011;50943;51.448;7.646;2024-02-21T12:01:20;12.43;;;3.73;;
5831;SDS011;50943;51.448;7.646;2024-02-21T12:03:49;9.30;;;3.37;;
5831;SDS011;50943;51.448;7.646;2024-02-21T12:06:17;10.33;;;3.90;;
5831;SDS011;50943;51.448;7.646;2024-02-21T12:08:46;8.03;;;3.20;;
5831;SDS011;50943;51.448;7.646;2024-02-21T12:11:17;9.57;;;3.30;;
5831;SDS011;50943;51.448;7.646;2024-02-21T12:13:45;14.57;;;3.77;;
5831;SDS011;50943;51.448;7.646;2024-02-21T12:16:14;9.70;;;3.90;;
5831;SDS011;50943;51.448;7.646;2024-02-21T12:18:41;7.90;;;3.10;;
5831;SDS011;50943;51.448;7.646;2024-02-21T12:21:08;12.27;;;3.33;;
5831;SDS011;50943;51.448;7.646;2024-02-21T12:23:37;6.90;;;3.10;;
5831;SDS011;50943;51.448;7.646;2024-02-21T12:26:04;10.97;;;3.30;;
5831;SDS011;50943;51.448;7.646;2024-02-21T12:28:30;12.13;;;2.97;;
5831;SDS011;50943;51.448;7.646;2024-02-21T12:30:57;10.37;;;3.30;;
5831;SDS011;50943;51.448;7.646;2024-02-21T12:33:24;10.53;;;3.27;;
5831;SDS011;50943;51.448;7.646;2024-02-21T12:35:50;8.17;;;2.90;;
5831;SDS011;50943;51.448;7.646;2024-02-21T12:38:20;16.03;;;3.40;;
5831;SDS011;50943;51.448;7.646;2024-02-21T12:40:47;9.20;;;3.00;;
5831;SDS011;50943;51.448;7.646;2024-02-21T12:43:14;12.97;;;3.10;;
5831;SDS011;50943;51.448;7.646;2024-02-21T12:45:40;10.13;;;3.10;;
5831;SDS011;50943;51.448;7.646;2024-02-21T12:48:07;15.27;;;3.30;;
5831;SDS011;50943;51.448;7.646;2024-02-21T12:50:34;8.87;;;2.97;;
5831;SDS011;50943;51.448;7.646;2024-02-21T12:53:00;6.30;;;2.80;;
5831;SDS011;50943;51.448;7.646;2024-02-21T12:55:27;10.83;;;3.53;;
5831;SDS011;50943;51.448;7.646;2024-02-21T12:57:55;12.90;;;4.03;;
5831;SDS011;50943;51.448;7.646;2024-02-21T13:00:22;8.67;;;3.30;;
5831;SDS011;50943;51.448;7.646;2024-02-21T13:02:51;7.73;;;3.33;;
5831;SDS011;50943;51.448;7.646;2024-02-21T13:05:18;7.70;;;3.07;;
5831;SDS011;50943;51.448;7.646;2024-02-21T13:07:44;8.47;;;3.13;;
5831;SDS011;50943;51.448;7.646;2024-02-21T13:10:11;11.70;;;2.60;;
5831;SDS011;50943;51.448;7.646;2024-02-21T13:12:39;9.07;;;3.33;;
5831;SDS011;50943;51.448;7.646;2024-02-21T13:15:07;11.30;;;3.00;;
5831;SDS011;50943;51.448;7.646;2024-02-21T13:17:37;12.80;;;3.43;;
5831;SDS011;50943;51.448;7.646;2024-02-21T13:20:05;10.63;;;3.03;;
5831;SDS011;50943;51.448;7.646;2024-02-21T13:22:33;10.23;;;3.20;;
5831;SDS011;50943;51.448;7.646;2024-02-21T13:24:59;7.80;;;3.23;;
5831;SDS011;50943;51.448;7.646;2024-02-21T13:27:26;8.40;;;2.83;;
5831;SDS011;50943;51.448;7.646;2024-02-21T13:29:53;9.10;;;3.37;;
5831;SDS011;50943;51.448;7.646;2024-02-21T13:32:20;12.30;;;3.33;;
5831;SDS011;50943;51.448;7.646;2024-02-21T13:34:47;7.43;;;3.43;;
5831;SDS011;50943;51.448;7.646;2024-02-21T13:37:14;10.23;;;3.77;;
5831;SDS011;50943;51.448;7.646;2024-02-21T13:39:40;13.23;;;3.70;;
5831;SDS011;50943;51.448;7.646;2024-02-21T13:42:07;10.40;;;4.20;;
5831;SDS011;50943;51.448;7.646;2024-02-21T13:44:33;10.53;;;3.93;;
5831;SDS011;50943;51.448;7.646;2024-02-21T13:47:03;10.93;;;3.50;;
5831;SDS011;50943;51.448;7.646;2024-02-21T13:49:30;13.57;;;3.73;;
5831;SDS011;50943;51.448;7.646;2024-02-21T13:51:57;13.87;;;3.60;;
5831;SDS011;50943;51.448;7.646;2024-02-21T13:54:24;10.47;;;3.20;;
5831;SDS011;50943;51.448;7.646;2024-02-21T13:56:51;13.87;;;3.90;;
5831;SDS011;50943;51.448;7.646;2024-02-21T13:59:17;11.10;;;3.30;;
5831;SDS011;50943;51.448;7.646;2024-02-21T14:01:44;16.63;;;3.77;;
5831;SDS011;50943;51.448;7.646;2024-02-21T14:04:10;8.33;;;3.17;;
5831;SDS011;50943;51.448;7.646;2024-02-21T14:06:38;11.13;;;3.33;;
5831;SDS011;50943;51.448;7.646;2024-02-21T14:09:08;10.60;;;3.17;;
5831;SDS011;50943;51.448;7.646;2024-02-21T14:11:34;9.03;;;2.90;;
5831;SDS011;50943;51.448;7.646;2024-02-21T14:14:02;11.13;;;2.70;;
5831;SDS011;50943;51.448;7.646;2024-02-21T14:16:29;10.37;;;3.00;;
5831;SDS011;50943;51.448;7.646;2024-02-21T14:18:56;10.13;;;3.87;;
5831;SDS011;50943;51.448;7.646;2024-02-21T14:21:22;7.13;;;2.90;;
5831;SDS011;50943;51.448;7.646;2024-02-21T14:23:50;9.03;;;2.97;;
5831;SDS011;50943;51.448;7.646;2024-02-21T14:26:17;10.40;;;3.30;;
5831;SDS011;50943;51.448;7.646;2024-02-21T14:28:44;10.23;;;2.83;;
5831;SDS011;50943;51.448;7.646;2024-02-21T14:31:10;9.20;;;3.10;;
5831;SDS011;50943;51.448;7.646;2024-02-21T14:33:37;10.90;;;4.13;;
5831;SDS011;50943;51.448;7.646;2024-02-21T14:36:04;8.60;;;2.50;;
5831;SDS011;50943;51.448;7.646;2024-02-21T14:38:32;11.10;;;4.00;;
5831;SDS011;50943;51.448;7.646;2024-02-21T14:41:01;6.83;;;2.97;;
5831;SDS011;50943;51.448;7.646;2024-02-21T14:43:28;13.20;;;3.10;;
5831;SDS011;50943;51.448;7.646;2024-02-21T14:45:55;7.13;;;2.90;;
5831;SDS011;50943;51.448;7.646;2024-02-21T14:48:21;12.60;;;3.07;;